Time;durP1;ratioP1;P1;durP2;ratioP2;P2;SDS_P1;SDS_P2;PMS_P1;PMS_P2;Temp;Humidity;BMP_temperature;BMP_pressure;BME280_temperature;BME280_humidity;BME280_pressure;Samples;Min_cycle;Max_cycle;Signal;HPM_P1;HPM_P2
2023/12/23 00:08:19;;;;;;;9.3;4.2;;;;;;;1.66;71.33;;;;;
2023/12/23 00:19:19;;;;;;;9.3;4.2;;;;;;;1.69;71.73;;;;;
2023/12/23 00:30:19;;;;;;;9.3;4.2;;;;;;;1.74;70.75;;;;;
2023/12/23 00:41:19;;;;;;;9.4;3.5;;;;;;;1.84;70;;;;;
2023/12/23 00:52:20;;;;;;;9.4;3.5;;;;;;;1.74;70.57;;;;;
2023/12/23 01:03:19;;;;;;;9.4;3.5;;;;;;;1.65;70.71;;;;;
2023/12/23 01:13:19;;;;;;;4.9;2.3;;;;;;;1.59;71.49;;;;;
2023/12/23 01:24:19;;;;;;;4.9;2.3;;;;;;;1.58;69.88;;;;;
2023/12/23 01:34:19;;;;;;;4.9;2.3;;;;;;;1.4;70.53;;;;;
2023/12/23 01:45:19;;;;;;;7.9;2.8;;;;;;;1.54;68.21;;;;;
2023/12/23 01:55:19;;;;;;;7.9;2.8;;;;;;;1.66;65.89;;;;;
2023/12/23 02:05:19;;;;;;;7.9;2.8;;;;;;;1.68;65.28;;;;;
2023/12/23 02:16:19;;;;;;;4.6;1.8;;;;;;;1.74;64.78;;;;;
2023/12/23 02:27:19;;;;;;;4.6;1.8;;;;;;;1.65;66.79;;;;;
2023/12/23 02:37:19;;;;;;;3.8;2.1;;;;;;;1.59;68.42;;;;;
2023/12/23 02:48:19;;;;;;;3.8;2.1;;;;;;;1.51;72.18;;;;;
2023/12/23 02:58:20;;;;;;;3.8;2.1;;;;;;;1.64;74.63;;;;;
2023/12/23 03:09:19;;;;;;;4.6;2.2;;;;;;;1.67;75.23;;;;;
2023/12/23 03:20:19;;;;;;;4.6;2.2;;;;;;;1.46;76.88;;;;;
2023/12/23 03:30:19;;;;;;;4.6;2.2;;;;;;;1.37;78.54;;;;;
2023/12/23 03:41:19;;;;;;;6.2;3.1;;;;;;;1.12;81.88;;;;;
2023/12/23 03:52:19;;;;;;;6.2;3.1;;;;;;;0.89;83.56;;;;;
2023/12/23 04:02:19;;;;;;;6.2;3.1;;;;;;;0.8;84.14;;;;;
2023/12/23 04:13:20;;;;;;;11.7;4.9;;;;;;;0.86;83.92;;;;;
2023/12/23 04:24:20;;;;;;;11.7;4.9;;;;;;;0.96;83.67;;;;;
2023/12/23 04:35:19;;;;;;;11.7;4.9;;;;;;;1;82.79;;;;;
2023/12/23 04:45:19;;;;;;;12.3;5.4;;;;;;;1.01;81.85;;;;;
2023/12/23 04:55:19;;;;;;;12.3;5.4;;;;;;;1.08;81.26;;;;;
2023/12/23 05:06:19;;;;;;;10.2;5.2;;;;;;;1.09;80.41;;;;;
2023/12/23 05:16:19;;;;;;;10.2;5.2;;;;;;;1.02;79.98;;;;;
2023/12/23 05:27:19;;;;;;;10.2;5.2;;;;;;;0.96;79.46;;;;;
2023/12/23 05:38:19;;;;;;;9.8;4.5;;;;;;;1.03;78.2;;;;;
2023/12/23 05:48:19;;;;;;;9.8;4.5;;;;;;;1.03;78.9;;;;;
2023/12/23 05:58:19;;;;;;;9.8;4.5;;;;;;;1;72.21;;;;;
2023/12/23 06:09:19;;;;;;;7.3;3.8;;;;;;;0.96;70.67;;;;;
2023/12/23 06:19:19;;;;;;;7.3;3.8;;;;;;;0.72;71.16;;;;;
2023/12/23 06:30:19;;;;;;;7.3;3.8;;;;;;;0.36;74.31;;;;;
2023/12/23 06:41:20;;;;;;;3.6;1.9;;;;;;;0.3;71.17;;;;;
2023/12/23 06:52:20;;;;;;;3.6;1.9;;;;;;;0.18;70.4;;;;;
2023/12/23 07:03:20;;;;;;;3.6;1.9;;;;;;;0.15;70.79;;;;;
2023/12/23 07:13:20;;;;;;;5.4;1.8;;;;;;;0.12;70.77;;;;;
2023/12/23 07:24:19;;;;;;;5.4;1.8;;;;;;;0.22;69.83;;;;;
2023/12/23 07:34:20;;;;;;;5.4;1.8;;;;;;;0.19;70.86;;;;;
2023/12/23 07:45:21;;;;;;;3.9;1.8;;;;;;;0.38;74.99;;;;;
2023/12/23 07:56:20;;;;;;;3.9;1.8;;;;;;;0.33;75.4;;;;;
2023/12/23 08:07:19;;;;;;;6.2;3.6;;;;;;;0.36;72.49;;;;;
2023/12/23 08:17:20;;;;;;;6.2;3.6;;;;;;;0.44;70.41;;;;;
2023/12/23 08:28:20;;;;;;;6.2;3.6;;;;;;;0.57;70;;;;;
2023/12/23 08:39:21;;;;;;;3.3;1.8;;;;;;;0.62;69.12;;;;;
2023/12/23 08:49:20;;;;;;;3.3;1.8;;;;;;;0.75;69.58;;;;;
2023/12/23 09:00:20;;;;;;;3.3;1.8;;;;;;;0.79;69.35;;;;;
2023/12/23 09:11:19;;;;;;;5.5;2.6;;;;;;;1.15;68.32;;;;;
2023/12/23 09:21:20;;;;;;;5.5;2.6;;;;;;;1.49;68.61;;;;;
2023/12/23 09:32:19;;;;;;;5.5;2.6;;;;;;;1.36;68.49;;;;;
2023/12/23 09:42:20;;;;;;;3.9;1.9;;;;;;;1.4;68.72;;;;;
2023/12/23 09:52:20;;;;;;;3.9;1.9;;;;;;;1.48;68.87;;;;;
2023/12/23 10:02:20;;;;;;;3.9;1.9;;;;;;;1.55;69.2;;;;;
2023/12/23 10:13:20;;;;;;;3.6;1.6;;;;;;;1.61;68.85;;;;;
2023/12/23 10:23:20;;;;;;;3.6;1.6;;;;;;;1.66;68.02;;;;;
2023/12/23 10:34:20;;;;;;;3.6;1.6;;;;;;;1.68;67.63;;;;;
2023/12/23 10:44:20;;;;;;;4.3;2.4;;;;;;;1.64;68.02;;;;;
2023/12/23 10:54:20;;;;;;;4.3;2.4;;;;;;;1.85;67.07;;;;;
2023/12/23 11:05:20;;;;;;;5.8;2.9;;;;;;;1.9;67.49;;;;;
2023/12/23 11:15:20;;;;;;;5.8;2.9;;;;;;;2;66.46;;;;;
2023/12/23 11:26:20;;;;;;;5.8;2.9;;;;;;;1.89;64.67;;;;;
2023/12/23 11:36:20;;;;;;;5.5;2.8;;;;;;;1.96;65.15;;;;;
2023/12/23 11:47:20;;;;;;;5.5;2.8;;;;;;;1.89;63.17;;;;;
2023/12/23 11:57:20;;;;;;;;;;;;;;;;;;;;;
2023/12/23 12:07:20;;;;;;;;;;;;;;;;;;;;;
2023/12/23 12:17:20;;;;;;;;;;;;;;;;;;;;;
2023/12/23 12:27:20;;;;;;;;;;;;;;;;;;;;;
2023/12/23 12:38:20;;;;;;;;;;;;;;;;;;;;;
2023/12/23 12:49:22;;;;;;;;;;;;;;;;;;;;;
2023/12/23 12:59:20;;;;;;;;;;;;;;;;;;;;;
2023/12/23 13:10:20;;;;;;;;;;;;;;;;;;;;;
2023/12/23 13:20:20;;;;;;;;;;;;;;;;;;;;;
2023/12/23 13:31:20;;;;;;;;;;;;;;;;;;;;;
2023/12/23 13:42:20;;;;;;;;;;;;;;;;;;;;;
2023/12/23 13:52:20;;;;;;;;;;;;;;;;;;;;;
2023/12/23 14:02:20;;;;;;;;;;;;;;;;;;;;;
2023/12/23 14:13:20;;;;;;;15;4.6;;;;;;;0.56;88.66;;;;;
2023/12/23 14:23:20;;;;;;;15;4.6;;;;;;;0.53;89.21;;;;;
2023/12/23 14:33:20;;;;;;;15;4.6;;;;;;;0.41;89.93;;;;;
2023/12/23 14:44:20;;;;;;;11.1;7;;;;;;;0.5;90;;;;;
2023/12/23 14:55:20;;;;;;;11.1;7;;;;;;;0.49;90.27;;;;;
2023/12/23 15:06:20;;;;;;;19.5;10.6;;;;;;;0.64;90.21;;;;;
2023/12/23 15:16:20;;;;;;;19.5;10.6;;;;;;;0.64;90.21;;;;;
2023/12/23 15:26:20;;;;;;;19.5;10.6;;;;;;;0.54;90.62;;;;;
2023/12/23 15:37:20;;;;;;;27.4;14.2;;;;;;;0.6;90.77;;;;;
2023/12/23 15:47:20;;;;;;;27.4;14.2;;;;;;;0.64;90.7;;;;;
2023/12/23 15:58:20;;;;;;;27.4;14.2;;;;;;;0.61;90.56;;;;;
2023/12/23 16:08:20;;;;;;;22.3;13.1;;;;;;;0.56;90.94;;;;;
2023/12/23 16:19:20;;;;;;;22.3;13.1;;;;;;;0.48;91.08;;;;;
2023/12/23 16:29:20;;;;;;;22.3;13.1;;;;;;;0.47;91.14;;;;;
2023/12/23 16:40:20;;;;;;;12.3;7.9;;;;;;;0.34;91.53;;;;;
2023/12/23 16:50:20;;;;;;;12.3;7.9;;;;;;;0.36;91.68;;;;;
2023/12/23 17:00:20;;;;;;;12.3;7.9;;;;;;;0.41;91.41;;;;;
2023/12/23 17:11:20;;;;;;;9.9;4.8;;;;;;;0.47;91.14;;;;;
2023/12/23 17:22:20;;;;;;;9.9;4.8;;;;;;;0.41;91.14;;;;;
2023/12/23 17:32:25;;;;;;;9.9;4.8;;;;;;;0.39;90.92;;;;;
2023/12/23 17:43:20;;;;;;;14.9;7.3;;;;;;;0.2;90.47;;;;;
2023/12/23 17:53:20;;;;;;;14.9;7.3;;;;;;;0.1;90.22;;;;;
2023/12/23 18:04:20;;;;;;;16.5;7.7;;;;;;;0.22;90.63;;;;;
2023/12/23 18:14:20;;;;;;;16.5;7.7;;;;;;;0.16;89.85;;;;;
2023/12/23 18:24:21;;;;;;;16.5;7.7;;;;;;;0.12;89.18;;;;;
2023/12/23 18:35:20;;;;;;;19.1;12.3;;;;;;;0.09;88.45;;;;;
2023/12/23 18:46:20;;;;;;;19.1;12.3;;;;;;;0.18;88.96;;;;;
2023/12/23 18:57:20;;;;;;;19.1;12.3;;;;;;;0.24;88.77;;;;;
2023/12/23 19:07:20;;;;;;;23;13.8;;;;;;;0.17;88.98;;;;;
2023/12/23 19:18:20;;;;;;;23;13.8;;;;;;;0.13;89.79;;;;;
2023/12/23 19:29:20;;;;;;;23;13.8;;;;;;;0.19;90.31;;;;;
2023/12/23 19:40:20;;;;;;;26.3;15.7;;;;;;;0.18;89.71;;;;;
2023/12/23 19:51:22;;;;;;;26.3;15.7;;;;;;;0.26;89.55;;;;;
2023/12/23 20:02:20;;;;;;;26.3;15.7;;;;;;;0.24;89.63;;;;;
2023/12/23 20:12:20;;;;;;;31.2;18.7;;;;;;;0.3;89.83;;;;;
2023/12/23 20:23:20;;;;;;;31.2;18.7;;;;;;;0.38;89.57;;;;;
2023/12/23 20:34:20;;;;;;;27.4;15;;;;;;;0.43;89.98;;;;;
2023/12/23 20:45:20;;;;;;;27.4;15;;;;;;;0.46;90.01;;;;;
2023/12/23 20:55:20;;;;;;;27.4;15;;;;;;;0.52;90.06;;;;;
2023/12/23 21:06:20;;;;;;;27;13.9;;;;;;;0.51;90.1;;;;;
2023/12/23 21:17:20;;;;;;;27;13.9;;;;;;;0.61;89.86;;;;;
2023/12/23 21:27:20;;;;;;;27;13.9;;;;;;;0.66;89.66;;;;;
2023/12/23 21:38:20;;;;;;;25.3;14.1;;;;;;;0.72;89.62;;;;;
2023/12/23 21:49:20;;;;;;;25.3;14.1;;;;;;;0.81;89.21;;;;;
2023/12/23 22:00:20;;;;;;;25.3;14.1;;;;;;;0.89;88.97;;;;;
2023/12/23 22:10:20;;;;;;;29.6;13.6;;;;;;;0.89;88.71;;;;;
2023/12/23 22:20:21;;;;;;;29.6;13.6;;;;;;;0.92;88.57;;;;;
2023/12/23 22:31:20;;;;;;;29.6;13.6;;;;;;;0.95;88.28;;;;;
2023/12/23 22:41:20;;;;;;;27.1;15.1;;;;;;;1.02;88.3;;;;;
2023/12/23 22:52:20;;;;;;;27.1;15.1;;;;;;;0.96;89.38;;;;;
2023/12/23 23:02:20;;;;;;;27.1;15.1;;;;;;;0.98;89.85;;;;;
2023/12/23 23:12:20;;;;;;;29.2;14.4;;;;;;;0.98;89.64;;;;;
2023/12/23 23:23:20;;;;;;;29.2;14.4;;;;;;;1.03;89.84;;;;;
2023/12/23 23:34:20;;;;;;;31;13.7;;;;;;;0.98;89.83;;;;;
2023/12/23 23:44:20;;;;;;;31;13.7;;;;;;;0.97;89.82;;;;;
2023/12/23 23:54:20;;;;;;;31;13.7;;;;;;;0.96;90.32;;;;;
